Time;durP1;ratioP1;P1;durP2;ratioP2;P2;SDS_P1;SDS_P2;PMS_P1;PMS_P2;Temp;Humidity;BMP_temperature;BMP_pressure;BME280_temperature;BME280_humidity;BME280_pressure;Samples;Min_cycle;Max_cycle;Signal;HPM_P1;HPM_P2
2021/04/15 00:00:58;;;;;;;11.45;6.93;;;4.30;62.90;;;;;;5053543;28;20385;-76
2021/04/15 00:03:30;;;;;;;9.68;7.20;;;4.20;62.70;;;;;;5053179;28;20393;-76
2021/04/15 00:06:01;;;;;;;9.45;7.32;;;4.20;64.40;;;;;;5053068;28;20896;-75
2021/04/15 00:08:27;;;;;;;11.03;7.00;;;4.20;64.80;;;;;;5053141;28;20504;-75
2021/04/15 00:10:56;;;;;;;11.30;7.25;;;4.20;65.50;;;;;;5070422;28;20395;-75
2021/04/15 00:13:44;;;;;;;9.95;6.82;;;4.10;65.80;;;;;;5054724;28;20385;-75
2021/04/15 00:16:10;;;;;;;14.05;7.90;;;4.10;66.20;;;;;;5054347;28;20409;-77
2021/04/15 00:18:36;;;;;;;11.40;7.80;;;4.10;67.00;;;;;;5053023;28;20470;-75
2021/04/15 00:21:03;;;;;;;10.45;7.72;;;4.00;67.20;;;;;;5054093;28;20381;-76
2021/04/15 00:23:29;;;;;;;11.17;7.90;;;4.00;69.30;;;;;;5053029;28;20389;-75
2021/04/15 00:25:54;;;;;;;15.20;8.77;;;4.00;70.30;;;;;;5053074;28;20572;-76
2021/04/15 00:28:20;;;;;;;12.30;8.10;;;4.00;72.10;;;;;;5053026;28;20467;-75
2021/04/15 00:30:48;;;;;;;12.97;8.63;;;4.00;71.30;;;;;;5053029;28;20378;-76
2021/04/15 00:33:14;;;;;;;12.73;8.07;;;4.00;71.10;;;;;;5035036;28;20493;-75
2021/04/15 00:35:40;;;;;;;11.93;8.40;;;4.00;69.50;;;;;;5053843;28;20393;-76
2021/04/15 00:38:06;;;;;;;9.82;7.80;;;3.90;71.70;;;;;;5053500;28;20397;-76
2021/04/15 00:40:34;;;;;;;9.75;8.40;;;3.90;71.80;;;;;;5053077;28;20492;-75
2021/04/15 00:43:01;;;;;;;14.40;8.50;;;3.90;72.60;;;;;;5052482;28;20417;-76
2021/04/15 00:45:34;;;;;;;10.18;7.53;;;3.90;71.30;;;;;;5052403;28;20385;-75
2021/04/15 00:48:21;;;;;;;14.02;8.25;;;3.90;69.60;;;;;;5053146;28;20405;-77
2021/04/15 00:50:58;;;;;;;13.18;8.65;;;3.90;68.80;;;;;;5054015;28;20385;-77
2021/04/15 00:53:29;;;;;;;11.70;8.20;;;3.80;70.00;;;;;;5053264;28;20746;-76
2021/04/15 00:55:55;;;;;;;11.17;8.40;;;3.80;71.20;;;;;;5052326;28;20381;-76
2021/04/15 00:58:22;;;;;;;12.23;8.55;;;3.80;71.20;;;;;;5052404;28;20386;-75
2021/04/15 01:00:47;;;;;;;12.55;8.85;;;3.70;71.40;;;;;;5052748;28;20901;-75
2021/04/15 01:03:13;;;;;;;14.70;9.37;;;3.70;71.60;;;;;;5052116;28;20428;-76
2021/04/15 01:05:42;;;;;;;13.02;9.38;;;3.70;72.70;;;;;;5052212;28;20417;-76
2021/04/15 01:08:08;;;;;;;12.18;9.15;;;3.70;73.10;;;;;;5034897;28;20409;-76
2021/04/15 01:10:46;;;;;;;13.32;9.15;;;3.60;73.20;;;;;;5067907;28;20474;-76
2021/04/15 01:13:34;;;;;;;15.90;10.00;;;3.60;73.50;;;;;;5052907;28;20390;-76
2021/04/15 01:16:27;;;;;;;12.45;9.70;;;3.60;74.50;;;;;;5053061;28;20777;-76
2021/04/15 01:19:22;;;;;;;14.07;10.45;;;3.50;74.40;;;;;;5056440;28;20485;-77
2021/04/15 01:22:28;;;;;;;15.88;10.20;;;3.50;75.70;;;;;;5053803;28;20393;-77
2021/04/15 01:25:21;;;;;;;15.02;10.10;;;3.50;75.50;;;;;;5052234;28;20789;-77
2021/04/15 01:27:54;;;;;;;14.65;10.32;;;3.50;74.50;;;;;;5049184;28;20409;-77
2021/04/15 01:30:36;;;;;;;14.70;10.30;;;3.40;75.70;;;;;;5052088;28;20417;-75
2021/04/15 01:33:29;;;;;;;14.50;10.93;;;3.30;78.20;;;;;;5051460;28;20381;-76
2021/04/15 01:36:04;;;;;;;16.50;10.18;;;3.30;76.70;;;;;;5052370;28;20889;-76
2021/04/15 01:38:49;;;;;;;13.35;10.00;;;3.30;78.20;;;;;;5051922;28;20397;-76
2021/04/15 01:41:39;;;;;;;15.32;10.73;;;3.30;78.90;;;;;;5051689;28;20900;-76
2021/04/15 01:44:19;;;;;;;15.48;11.50;;;3.30;80.40;;;;;;5051102;28;20389;-75
2021/04/15 01:46:45;;;;;;;19.55;11.85;;;3.20;81.60;;;;;;5051267;28;20785;-76
2021/04/15 01:49:14;;;;;;;16.58;11.10;;;3.20;81.30;;;;;;5051368;28;20409;-76
2021/04/15 01:51:43;;;;;;;14.55;11.38;;;3.20;79.20;;;;;;5051624;28;20374;-76
2021/04/15 01:54:14;;;;;;;15.73;11.40;;;3.30;78.40;;;;;;5051383;28;20381;-75
2021/04/15 01:56:57;;;;;;;15.50;11.38;;;3.20;78.10;;;;;;5051337;28;20385;-77
2021/04/15 01:59:29;;;;;;;15.98;11.85;;;3.10;79.40;;;;;;5033725;28;20385;-76
2021/04/15 02:01:58;;;;;;;18.20;12.63;;;3.00;82.00;;;;;;5033522;28;20386;-76
2021/04/15 02:04:28;;;;;;;18.08;12.80;;;3.00;83.40;;;;;;5050835;28;20412;-76
2021/04/15 02:07:01;;;;;;;18.40;13.18;;;2.80;85.90;;;;;;5051231;28;20384;-76
2021/04/15 02:09:28;;;;;;;14.13;11.60;;;2.90;87.60;;;;;;5051063;28;20389;-76
2021/04/15 02:12:06;;;;;;;16.13;12.53;;;3.00;84.20;;;;;;5051078;28;20409;-75
2021/04/15 02:14:35;;;;;;;19.50;13.27;;;2.80;82.90;;;;;;5032442;28;20419;-75
2021/04/15 02:17:03;;;;;;;19.48;13.15;;;2.60;85.90;;;;;;5050916;28;20381;-77
2021/04/15 02:19:38;;;;;;;22.73;14.47;;;2.70;87.10;;;;;;5054288;28;20390;-77
2021/04/15 02:22:32;;;;;;;21.33;14.95;;;2.30;87.70;;;;;;5052722;28;20433;-76
2021/04/15 02:25:24;;;;;;;20.30;13.35;;;2.30;90.90;;;;;;5050755;28;20385;-76
2021/04/15 02:27:55;;;;;;;19.17;14.48;;;2.10;93.80;;;;;;5050503;28;20599;-75
2021/04/15 02:30:29;;;;;;;19.77;13.75;;;2.10;96.10;;;;;;5049399;28;20431;-76
2021/04/15 02:33:14;;;;;;;16.67;11.90;;;2.50;95.20;;;;;;5050680;28;20504;-75
2021/04/15 02:35:45;;;;;;;19.80;13.18;;;2.70;88.10;;;;;;5051170;28;20373;-77
2021/04/15 02:38:12;;;;;;;18.83;13.07;;;2.80;83.90;;;;;;5050907;28;20451;-76
2021/04/15 02:41:02;;;;;;;26.20;12.60;;;2.80;82.90;;;;;;5051261;28;20444;-76
2021/04/15 02:43:40;;;;;;;18.13;13.02;;;2.80;81.30;;;;;;5043627;28;20964;-76
2021/04/15 02:46:28;;;;;;;17.00;13.02;;;2.80;80.60;;;;;;5051249;28;20393;-75
2021/04/15 02:48:59;;;;;;;17.65;12.98;;;2.70;80.20;;;;;;5050542;28;20405;-75
2021/04/15 02:51:55;;;;;;;18.33;13.23;;;2.70;80.20;;;;;;5050940;28;20389;-76
2021/04/15 02:54:32;;;;;;;20.45;14.30;;;2.60;82.80;;;;;;5042280;28;20393;-76
2021/04/15 02:57:12;;;;;;;21.30;16.17;;;2.60;83.70;;;;;;5051418;28;20381;-77
2021/04/15 03:00:03;;;;;;;21.45;15.68;;;2.40;84.20;;;;;;5050984;28;20374;-76
2021/04/15 03:02:32;;;;;;;23.85;16.30;;;2.50;88.20;;;;;;5050479;28;20378;-75
2021/04/15 03:05:03;;;;;;;23.55;15.98;;;2.50;86.60;;;;;;5050635;28;20436;-75
2021/04/15 03:07:31;;;;;;;24.73;15.37;;;2.50;88.00;;;;;;5050703;28;20459;-76
2021/04/15 03:10:01;;;;;;;22.08;15.82;;;2.50;87.80;;;;;;5060913;28;20402;-76
2021/04/15 03:12:30;;;;;;;20.85;15.70;;;2.50;88.10;;;;;;5057155;28;20468;-75
2021/04/15 03:15:09;;;;;;;20.83;15.13;;;2.40;88.50;;;;;;5051123;28;20762;-75
2021/04/15 03:17:38;;;;;;;24.77;15.23;;;2.40;89.00;;;;;;5050506;28;20396;-76
2021/04/15 03:20:17;;;;;;;21.88;14.70;;;2.50;86.90;;;;;;5051222;28;20393;-76
2021/04/15 03:22:55;;;;;;;23.67;15.75;;;2.50;85.70;;;;;;5050293;28;20386;-76
2021/04/15 03:25:21;;;;;;;19.35;14.88;;;2.50;86.60;;;;;;5050687;28;20747;-75
2021/04/15 03:27:59;;;;;;;19.10;13.70;;;2.50;84.70;;;;;;5054115;28;20406;-75
2021/04/15 03:30:50;;;;;;;18.48;14.65;;;2.50;78.80;;;;;;5055545;28;20385;-75
2021/04/15 03:33:38;;;;;;;19.00;15.32;;;2.40;79.20;;;;;;5057890;28;20382;-77
2021/04/15 03:36:22;;;;;;;20.00;15.63;;;2.30;82.10;;;;;;5058676;28;20389;-77
2021/04/15 03:38:59;;;;;;;23.15;16.80;;;2.20;85.80;;;;;;5056276;28;20405;-75
2021/04/15 03:41:38;;;;;;;25.27;16.65;;;2.20;88.90;;;;;;5067552;28;20432;-74
2021/04/15 03:44:18;;;;;;;25.73;17.27;;;2.10;88.90;;;;;;5061270;28;20476;-74
2021/04/15 03:46:57;;;;;;;25.92;17.92;;;1.90;92.30;;;;;;5065492;28;20742;-76
2021/04/15 03:49:32;;;;;;;24.63;16.67;;;2.10;96.40;;;;;;5063863;28;20374;-76
2021/04/15 03:52:13;;;;;;;23.55;15.73;;;2.20;93.40;;;;;;5062799;28;20369;-76
2021/04/15 03:54:44;;;;;;;18.67;15.37;;;2.20;84.10;;;;;;5066122;28;20373;-75
2021/04/15 03:57:14;;;;;;;21.08;16.23;;;2.20;82.80;;;;;;5059246;28;20381;-75
2021/04/15 03:59:48;;;;;;;22.30;16.52;;;2.20;85.40;;;;;;5057567;28;20393;-75
2021/04/15 04:02:24;;;;;;;24.48;16.90;;;2.20;88.70;;;;;;5072172;28;20382;-76
2021/04/15 04:04:58;;;;;;;21.52;16.67;;;2.10;90.20;;;;;;5073623;28;20801;-76
2021/04/15 04:07:44;;;;;;;23.40;16.40;;;2.10;91.20;;;;;;5071754;28;20441;-77
2021/04/15 04:10:23;;;;;;;24.50;17.75;;;2.20;90.40;;;;;;5066259;28;20386;-75
2021/04/15 04:13:07;;;;;;;23.77;17.27;;;2.20;91.80;;;;;;5056523;28;20397;-74
2021/04/15 04:15:37;;;;;;;25.63;16.65;;;2.30;90.00;;;;;;5053394;28;20472;-76
2021/04/15 04:18:26;;;;;;;26.50;18.13;;;2.10;90.80;;;;;;5053019;28;20425;-75
2021/04/15 04:21:00;;;;;;;27.73;18.60;;;2.10;90.60;;;;;;5053390;28;20377;-75
2021/04/15 04:23:46;;;;;;;25.25;17.63;;;1.80;92.80;;;;;;5053238;28;20381;-75
2021/04/15 04:26:20;;;;;;;21.98;15.32;;;2.20;94.50;;;;;;5056067;28;20377;-76
2021/04/15 04:29:15;;;;;;;23.80;16.40;;;2.30;87.50;;;;;;5036628;28;20408;-75
2021/04/15 04:31:44;;;;;;;24.27;16.02;;;2.30;85.70;;;;;;5053055;28;20385;-74
2021/04/15 04:34:17;;;;;;;23.63;16.93;;;2.30;85.50;;;;;;5052731;28;20471;-76
2021/04/15 04:36:45;;;;;;;23.13;16.45;;;2.30;87.30;;;;;;5052228;28;20464;-77
2021/04/15 04:39:14;;;;;;;25.03;16.53;;;2.30;86.00;;;;;;5052706;28;20398;-76
2021/04/15 04:42:18;;;;;;;24.27;16.37;;;2.30;86.50;;;;;;5053116;28;20389;-76
2021/04/15 04:44:51;;;;;;;22.23;16.40;;;2.20;85.80;;;;;;5022092;28;20889;-76
2021/04/15 04:47:38;;;;;;;21.90;16.05;;;2.20;86.70;;;;;;5052843;28;20405;-76
2021/04/15 04:50:22;;;;;;;23.23;16.33;;;2.20;86.10;;;;;;5052502;28;20427;-74
2021/04/15 04:52:55;;;;;;;25.38;16.80;;;2.30;85.50;;;;;;5052332;28;20377;-77
2021/04/15 04:55:42;;;;;;;31.80;18.98;;;2.30;85.10;;;;;;5052717;28;20497;-76
2021/04/15 04:58:17;;;;;;;26.08;17.40;;;2.20;88.00;;;;;;5053022;28;20407;-76
2021/04/15 05:00:49;;;;;;;27.60;18.58;;;2.20;87.10;;;;;;5052904;28;20754;-75
2021/04/15 05:03:24;;;;;;;28.55;17.60;;;2.20;88.10;;;;;;5052463;28;20385;-76
2021/04/15 05:06:06;;;;;;;32.33;18.80;;;2.20;86.00;;;;;;5052556;28;20381;-75
2021/04/15 05:08:53;;;;;;;24.50;16.67;;;2.10;87.40;;;;;;5052011;28;20496;-75
2021/04/15 05:11:20;;;;;;;25.95;17.05;;;2.30;83.00;;;;;;5036621;28;20889;-75
2021/04/15 05:13:46;;;;;;;23.05;16.83;;;2.30;81.90;;;;;;5052163;28;20397;-75
2021/04/15 05:16:12;;;;;;;27.70;17.88;;;2.30;82.30;;;;;;5052380;28;20470;-75
2021/04/15 05:18:38;;;;;;;31.63;18.27;;;2.30;85.20;;;;;;5052348;28;20432;-75
2021/04/15 05:21:15;;;;;;;23.90;16.67;;;2.40;83.90;;;;;;5052277;28;20855;-75
2021/04/15 05:23:59;;;;;;;27.33;18.10;;;2.40;82.30;;;;;;5052082;28;20465;-76
2021/04/15 05:26:32;;;;;;;26.70;17.67;;;2.40;82.20;;;;;;5052910;28;20464;-75
2021/04/15 05:29:00;;;;;;;29.55;18.50;;;2.30;82.60;;;;;;5055148;28;20410;-76
2021/04/15 05:31:28;;;;;;;25.27;17.33;;;2.40;85.40;;;;;;5034820;28;20386;-76
2021/04/15 05:33:58;;;;;;;28.00;18.23;;;2.60;83.30;;;;;;5052890;28;20378;-76
2021/04/15 05:36:36;;;;;;;24.40;17.33;;;2.60;81.60;;;;;;5033775;28;20389;-75
2021/04/15 05:39:07;;;;;;;27.48;17.15;;;2.70;82.90;;;;;;5051840;28;20437;-76
2021/04/15 05:42:06;;;;;;;24.58;17.60;;;2.80;81.60;;;;;;5052737;28;20385;-76
2021/04/15 05:44:37;;;;;;;29.05;17.90;;;2.80;83.80;;;;;;5052314;28;20393;-76
2021/04/15 05:47:14;;;;;;;29.45;18.88;;;3.00;80.60;;;;;;5051621;28;20472;-75
2021/04/15 05:49:46;;;;;;;28.65;18.00;;;2.80;81.90;;;;;;5050543;28;20413;-76
2021/04/15 05:52:32;;;;;;;25.13;16.80;;;3.10;80.90;;;;;;5051903;28;20914;-77
2021/04/15 05:55:04;;;;;;;24.10;16.17;;;3.20;79.20;;;;;;5051966;28;20392;-76
2021/04/15 05:57:35;;;;;;;24.75;16.50;;;3.30;74.00;;;;;;5052220;28;20393;-76
2021/04/15 06:00:08;;;;;;;23.83;15.10;;;3.40;73.60;;;;;;5052515;28;20392;-76
2021/04/15 06:03:11;;;;;;;20.77;15.80;;;3.50;72.10;;;;;;5053414;28;20868;-76
2021/04/15 06:05:53;;;;;;;22.02;15.60;;;3.50;70.90;;;;;;5045011;28;20388;-76
2021/04/15 06:08:19;;;;;;;23.70;16.40;;;3.50;67.70;;;;;;5057611;28;20836;-75
2021/04/15 06:10:45;;;;;;;27.95;17.02;;;3.50;68.50;;;;;;5072197;28;20524;-75
2021/04/15 06:13:52;;;;;;;22.63;16.17;;;3.50;69.00;;;;;;5052063;28;20385;-76
2021/04/15 06:16:31;;;;;;;20.40;15.57;;;3.50;68.30;;;;;;5051387;28;20878;-74
2021/04/15 06:19:06;;;;;;;21.10;16.23;;;3.60;69.80;;;;;;5051286;28;20394;-74
2021/04/15 06:21:40;;;;;;;21.05;15.48;;;3.70;68.50;;;;;;5051575;28;20392;-76
2021/04/15 06:24:27;;;;;;;23.05;15.60;;;3.80;67.60;;;;;;5054144;28;20531;-74
2021/04/15 06:26:54;;;;;;;25.13;16.10;;;3.90;66.10;;;;;;5051338;28;20389;-77
2021/04/15 06:29:29;;;;;;;25.27;16.63;;;3.90;68.70;;;;;;5050503;28;20510;-76
2021/04/15 06:31:57;;;;;;;21.02;15.65;;;4.00;67.40;;;;;;5055110;28;20865;-76
2021/04/15 06:34:25;;;;;;;25.98;15.98;;;4.00;65.30;;;;;;5055657;28;20909;-76
2021/04/15 06:37:14;;;;;;;24.98;15.60;;;4.10;65.40;;;;;;5060411;28;20919;-77
2021/04/15 06:39:48;;;;;;;23.35;15.73;;;4.10;62.50;;;;;;5053324;28;20413;-73
2021/04/15 06:42:43;;;;;;;23.90;14.73;;;4.20;62.70;;;;;;5059340;28;20401;-73
2021/04/15 06:45:23;;;;;;;21.73;14.80;;;4.30;62.20;;;;;;5055216;28;20858;-77
2021/04/15 06:48:09;;;;;;;24.58;15.50;;;4.40;63.40;;;;;;5039247;28;20408;-76
2021/04/15 06:50:56;;;;;;;22.95;15.07;;;4.60;62.30;;;;;;5060634;28;20433;-76
2021/04/15 06:54:01;;;;;;;28.60;15.32;;;4.60;59.80;;;;;;5059413;28;20392;-75
2021/04/15 06:56:40;;;;;;;26.92;14.90;;;4.60;58.70;;;;;;5066641;28;20395;-77
2021/04/15 06:59:39;;;;;;;25.63;15.80;;;4.60;59.00;;;;;;5038234;28;20462;-76
2021/04/15 07:02:27;;;;;;;26.95;16.02;;;4.70;60.40;;;;;;5035985;28;20748;-76
2021/04/15 07:05:01;;;;;;;25.42;15.65;;;4.90;61.20;;;;;;5055332;28;20402;-76
2021/04/15 07:07:33;;;;;;;28.50;15.60;;;5.10;59.20;;;;;;5055963;28;20417;-78
2021/04/15 07:10:28;;;;;;;23.90;15.60;;;5.20;55.80;;;;;;5046759;28;20403;-77
2021/04/15 07:13:18;;;;;;;25.20;15.32;;;5.30;55.00;;;;;;5056219;28;20389;-76
2021/04/15 07:16:12;;;;;;;24.00;14.63;;;5.20;55.80;;;;;;5058884;28;20876;-75
2021/04/15 07:18:57;;;;;;;25.15;14.88;;;5.40;53.80;;;;;;5053341;28;20862;-76
2021/04/15 07:21:42;;;;;;;27.57;14.53;;;5.50;54.10;;;;;;5053602;28;20416;-76
2021/04/15 07:24:19;;;;;;;29.27;14.87;;;5.60;51.50;;;;;;5053522;28;20465;-76
2021/04/15 07:27:18;;;;;;;28.35;15.30;;;5.60;51.60;;;;;;5061239;28;20416;-76
2021/04/15 07:30:10;;;;;;;27.85;12.85;;;5.70;54.80;;;;;;5047103;28;20406;-75
2021/04/15 07:32:45;;;;;;;25.88;14.68;;;5.90;51.30;;;;;;5066226;28;20387;-76
2021/04/15 07:35:38;;;;;;;22.90;14.77;;;5.80;50.90;;;;;;5064914;28;20799;-76
2021/04/15 07:38:30;;;;;;;24.33;14.30;;;6.00;51.10;;;;;;5064056;28;20469;-76
2021/04/15 07:41:19;;;;;;;28.70;13.90;;;6.20;52.30;;;;;;5062624;28;20496;-76
2021/04/15 07:44:09;;;;;;;34.85;13.80;;;6.60;47.40;;;;;;5050658;28;20397;-77
2021/04/15 07:46:40;;;;;;;23.37;13.30;;;6.60;45.90;;;;;;5047804;28;20378;-78
2021/04/15 07:49:15;;;;;;;26.05;12.90;;;6.70;44.80;;;;;;5071300;28;20413;-78
2021/04/15 07:52:05;;;;;;;19.73;11.63;;;6.80;42.50;;;;;;5068286;28;20439;-77
2021/04/15 07:55:07;;;;;;;22.65;11.95;;;6.80;42.00;;;;;;5058152;28;20436;-76
2021/04/15 07:57:53;;;;;;;21.67;11.70;;;6.70;42.60;;;;;;5066713;28;20384;-77
2021/04/15 08:00:47;;;;;;;23.60;9.85;;;6.90;41.80;;;;;;5068798;28;20396;-75
2021/04/15 08:03:34;;;;;;;21.65;10.23;;;7.10;37.00;;;;;;5075419;28;20395;-75
2021/04/15 08:06:38;;;;;;;19.90;10.90;;;7.30;37.00;;;;;;5050096;28;20468;-75
2021/04/15 08:09:09;;;;;;;14.43;6.82;;;7.40;35.40;;;;;;5006702;28;20418;-75
2021/04/15 08:11:45;;;;;;;17.92;7.60;;;7.30;30.90;;;;;;5059963;28;20466;-75
2021/04/15 08:14:14;;;;;;;15.43;7.43;;;7.30;32.60;;;;;;5052627;28;20695;-76
2021/04/15 08:17:13;;;;;;;13.60;6.50;;;7.50;29.70;;;;;;5064894;28;20905;-76
2021/04/15 08:20:09;;;;;;;15.35;7.07;;;7.70;32.60;;;;;;5063295;28;20448;-75
2021/04/15 08:23:09;;;;;;;18.50;6.95;;;7.70;31.40;;;;;;5036213;28;20400;-77
2021/04/15 08:26:05;;;;;;;13.77;6.50;;;7.70;28.70;;;;;;5063030;28;20447;-75
2021/04/15 08:28:55;;;;;;;12.90;6.55;;;7.80;28.40;;;;;;5065029;28;20476;-74
2021/04/15 08:31:47;;;;;;;15.63;7.10;;;7.90;26.40;;;;;;5060194;28;20398;-77
2021/04/15 08:34:25;;;;;;;8.83;4.77;;;8.20;28.60;;;;;;5059144;28;20474;-76
2021/04/15 08:37:22;;;;;;;8.43;4.80;;;8.20;20.70;;;;;;5046590;28;20423;-76
2021/04/15 08:40:06;;;;;;;13.00;6.30;;;8.10;22.80;;;;;;4996653;28;20446;-75
2021/04/15 08:42:57;;;;;;;7.53;4.70;;;8.30;24.20;;;;;;5062710;28;20400;-77
2021/04/15 08:45:32;;;;;;;12.68;5.60;;;8.50;21.20;;;;;;5070191;28;20387;-77
2021/04/15 08:48:27;;;;;;;9.35;5.88;;;8.90;22.20;;;;;;5063191;28;20401;-75
2021/04/15 08:50:58;;;;;;;12.43;6.28;;;9.10;20.30;;;;;;5023819;28;20896;-74
2021/04/15 08:54:00;;;;;;;10.35;5.00;;;9.20;20.20;;;;;;5061037;28;20393;-72
2021/04/15 08:56:31;;;;;;;7.40;5.15;;;8.80;20.20;;;;;;5071584;28;20642;-73
2021/04/15 08:59:31;;;;;;;14.93;6.30;;;8.50;22.10;;;;;;5065678;28;20395;-72
2021/04/15 09:02:22;;;;;;;15.45;5.82;;;8.50;23.50;;;;;;5073249;28;20388;-73
2021/04/15 09:04:57;;;;;;;12.50;6.20;;;8.80;23.50;;;;;;5053837;28;20424;-74
2021/04/15 09:07:25;;;;;;;10.32;6.60;;;9.30;21.60;;;;;;5055268;28;20400;-72
2021/04/15 09:10:21;;;;;;;15.50;6.43;;;9.70;18.30;;;;;;5052089;28;20403;-73
2021/04/15 09:12:48;;;;;;;9.20;6.32;;;9.60;17.60;;;;;;5061475;28;20381;-73
2021/04/15 09:15:28;;;;;;;13.07;5.90;;;9.90;17.60;;;;;;5075068;28;20372;-78
2021/04/15 09:18:14;;;;;;;8.65;5.20;;;10.10;16.40;;;;;;5063336;28;20448;-76
2021/04/15 09:20:47;;;;;;;6.25;4.90;;;10.10;15.30;;;;;;5079688;28;20431;-75
2021/04/15 09:23:37;;;;;;;10.43;5.50;;;10.10;16.30;;;;;;5054386;28;20998;-76
2021/04/15 09:26:05;;;;;;;9.38;5.40;;;10.30;15.40;;;;;;5041853;28;20499;-76
2021/04/15 09:29:05;;;;;;;9.93;5.55;;;10.20;14.70;;;;;;5067924;28;20420;-76
2021/04/15 09:31:57;;;;;;;9.38;5.47;;;10.20;15.70;;;;;;5065332;28;20387;-76
2021/04/15 09:34:50;;;;;;;7.03;5.30;;;10.20;15.80;;;;;;5071003;28;20380;-76
2021/04/15 09:37:44;;;;;;;10.32;6.10;;;9.90;15.90;;;;;;5077043;28;20489;-77
2021/04/15 09:40:20;;;;;;;9.02;5.03;;;9.60;16.10;;;;;;5059946;28;20416;-76
2021/04/15 09:42:58;;;;;;;6.03;4.88;;;9.40;16.30;;;;;;5040916;28;20387;-76
2021/04/15 09:45:54;;;;;;;8.98;5.20;;;9.50;16.60;;;;;;5068120;28;20385;-76
2021/04/15 09:48:50;;;;;;;9.95;5.43;;;9.50;16.40;;;;;;5060265;28;20491;-75
2021/04/15 09:51:40;;;;;;;9.68;4.97;;;9.60;16.40;;;;;;5011993;28;20438;-76
2021/04/15 09:54:25;;;;;;;11.40;5.33;;;9.80;16.70;;;;;;5062595;28;20412;-76
2021/04/15 09:57:20;;;;;;;6.40;5.30;;;9.50;16.20;;;;;;5052314;28;20392;-76
2021/04/15 10:00:22;;;;;;;10.38;5.20;;;9.40;16.50;;;;;;5055582;28;20874;-75
2021/04/15 10:03:00;;;;;;;8.25;5.03;;;9.20;16.20;;;;;;5051620;28;20401;-76
2021/04/15 10:05:46;;;;;;;8.30;4.82;;;9.50;16.20;;;;;;5041736;28;20436;-77
2021/04/15 10:08:23;;;;;;;8.43;4.50;;;9.50;15.20;;;;;;5060744;28;20443;-77
2021/04/15 10:11:00;;;;;;;6.30;4.65;;;9.20;14.70;;;;;;5064779;28;20425;-76
2021/04/15 10:13:43;;;;;;;10.95;4.97;;;9.10;14.40;;;;;;5054838;28;20386;-77
2021/04/15 10:16:46;;;;;;;6.13;4.90;;;9.30;15.40;;;;;;5066459;28;20878;-77
2021/04/15 10:19:40;;;;;;;7.55;5.00;;;9.60;15.20;;;;;;5053330;28;20414;-76
2021/04/15 10:22:27;;;;;;;7.05;4.63;;;9.90;14.40;;;;;;5066326;28;20394;-76
2021/04/15 10:24:59;;;;;;;10.20;5.40;;;9.70;14.50;;;;;;5054622;28;20383;-76
2021/04/15 10:27:52;;;;;;;8.75;5.00;;;9.70;14.60;;;;;;5061740;28;20424;-77
2021/04/15 10:30:45;;;;;;;9.05;5.63;;;10.10;13.70;;;;;;5063710;28;20395;-76
2021/04/15 10:33:57;;;;;;;7.15;4.28;;;10.60;13.40;;;;;;5047661;28;20478;-77
2021/04/15 10:36:40;;;;;;;9.85;5.63;;;10.80;12.20;;;;;;5074450;28;20437;-76
2021/04/15 10:39:30;;;;;;;12.60;4.78;;;11.10;12.90;;;;;;5069869;28;20493;-77
2021/04/15 10:42:34;;;;;;;11.35;5.10;;;11.10;11.50;;;;;;5023770;28;20398;-77
2021/04/15 10:45:02;;;;;;;8.48;5.00;;;11.40;12.20;;;;;;5066077;28;20807;-76
2021/04/15 10:47:40;;;;;;;9.07;5.00;;;11.50;10.70;;;;;;5075466;28;20512;-77
2021/04/15 10:50:26;;;;;;;7.25;4.35;;;11.60;9.50;;;;;;5066978;28;20385;-75
2021/04/15 10:53:06;;;;;;;6.65;4.28;;;11.50;9.60;;;;;;5051668;28;20393;-75
2021/04/15 10:55:35;;;;;;;7.10;3.60;;;11.30;12.20;;;;;;5068012;28;20442;-75
2021/04/15 10:58:35;;;;;;;6.10;3.60;;;11.10;9.60;;;;;;5073037;28;20395;-76
2021/04/15 11:01:25;;;;;;;7.22;4.20;;;11.50;10.90;;;;;;5018231;28;20445;-75
2021/04/15 11:03:53;;;;;;;5.53;3.65;;;11.80;9.60;;;;;;5052871;28;20830;-76
2021/04/15 11:06:39;;;;;;;5.45;3.78;;;11.80;8.50;;;;;;5058180;28;20404;-78
2021/04/15 11:09:17;;;;;;;5.63;3.67;;;11.80;7.90;;;;;;5068643;28;20402;-77
2021/04/15 11:12:12;;;;;;;11.32;3.60;;;12.00;9.10;;;;;;5038533;28;20417;-77
2021/04/15 11:14:46;;;;;;;6.38;3.30;;;12.30;8.00;;;;;;5048421;28;20399;-76
2021/04/15 11:17:21;;;;;;;4.47;3.40;;;12.40;7.10;;;;;;5074599;28;20921;-76
2021/04/15 11:19:48;;;;;;;5.38;3.40;;;12.20;7.70;;;;;;5065420;28;20805;-76
2021/04/15 11:22:31;;;;;;;5.57;4.18;;;12.20;7.60;;;;;;5056068;28;20719;-75
2021/04/15 11:25:27;;;;;;;6.05;3.20;;;12.10;7.60;;;;;;5060434;28;20515;-77
2021/04/15 11:27:54;;;;;;;9.00;4.45;;;12.10;8.30;;;;;;5026856;28;20403;-76
2021/04/15 11:30:47;;;;;;;7.30;3.42;;;12.30;8.10;;;;;;5062953;28;20385;-77
2021/04/15 11:33:45;;;;;;;4.63;3.40;;;12.30;8.10;;;;;;5046889;28;20744;-77
2021/04/15 11:36:28;;;;;;;5.32;3.60;;;12.50;7.50;;;;;;5062543;28;20408;-76
2021/04/15 11:39:05;;;;;;;4.20;3.50;;;11.30;8.30;;;;;;5056463;28;20466;-76
2021/04/15 11:41:46;;;;;;;6.35;3.35;;;11.00;9.10;;;;;;5077079;28;20379;-77
2021/04/15 11:44:29;;;;;;;3.90;3.40;;;11.10;10.00;;;;;;5073258;28;20395;-79
2021/04/15 11:47:14;;;;;;;8.65;3.63;;;11.10;9.60;;;;;;5058868;28;20925;-77
2021/04/15 11:49:43;;;;;;;3.58;2.90;;;11.50;8.10;;;;;;5049681;28;20423;-76
2021/04/15 11:52:12;;;;;;;3.92;2.90;;;11.40;7.20;;;;;;5064983;28;20392;-77
2021/04/15 11:54:44;;;;;;;8.80;3.30;;;11.10;8.20;;;;;;5054914;28;20393;-77
2021/04/15 11:57:19;;;;;;;6.00;2.92;;;10.90;7.70;;;;;;5058984;28;20400;-76
2021/04/15 12:00:00;;;;;;;5.97;3.10;;;10.70;6.40;;;;;;5061816;28;20923;-76
2021/04/15 12:02:35;;;;;;;5.55;3.60;;;10.90;7.50;;;;;;5062358;28;20387;-78
2021/04/15 12:05:31;;;;;;;6.23;3.10;;;11.10;7.00;;;;;;5064779;28;20381;-77
2021/04/15 12:08:23;;;;;;;7.63;2.80;;;11.60;7.00;;;;;;5062336;28;20400;-76
2021/04/15 12:11:05;;;;;;;6.30;2.67;;;11.30;7.40;;;;;;5065415;28;20431;-76
2021/04/15 12:13:46;;;;;;;5.33;2.40;;;11.50;8.20;;;;;;5065158;28;20673;-77
2021/04/15 12:16:34;;;;;;;3.85;3.00;;;11.20;8.40;;;;;;5068197;28;21028;-77
2021/04/15 12:19:14;;;;;;;6.05;2.60;;;11.40;8.20;;;;;;5057920;28;20466;-77
2021/04/15 12:21:53;;;;;;;3.20;2.90;;;11.50;7.90;;;;;;5046628;28;20392;-78
2021/04/15 12:24:44;;;;;;;3.75;3.30;;;11.70;6.70;;;;;;5057655;28;20408;-78
2021/04/15 12:27:22;;;;;;;5.25;3.30;;;11.40;6.50;;;;;;5055582;28;20480;-75
2021/04/15 12:30:11;;;;;;;3.60;3.20;;;11.20;6.30;;;;;;5035035;28;20743;-76
2021/04/15 12:32:46;;;;;;;5.35;3.58;;;11.20;6.40;;;;;;5042572;28;20890;-76
2021/04/15 12:35:30;;;;;;;4.35;3.50;;;11.40;6.10;;;;;;5053177;28;20382;-76
2021/04/15 12:38:15;;;;;;;6.40;4.20;;;11.80;4.60;;;;;;5051994;28;20429;-76
2021/04/15 12:40:43;;;;;;;6.53;4.50;;;12.50;4.80;;;;;;5053064;28;20484;-75
2021/04/15 12:43:24;;;;;;;9.20;4.40;;;12.60;3.80;;;;;;5054906;28;20396;-75
2021/04/15 12:45:58;;;;;;;9.35;4.50;;;13.30;3.40;;;;;;5060851;28;20417;-75
2021/04/15 12:48:55;;;;;;;5.93;3.88;;;13.80;2.00;;;;;;5041673;28;20405;-75
2021/04/15 12:51:49;;;;;;;4.72;2.90;;;14.40;1.40;;;;;;5055136;28;20472;-76
2021/04/15 12:54:35;;;;;;;6.63;3.45;;;14.20;1.20;;;;;;5053610;28;20398;-76
2021/04/15 12:57:05;;;;;;;6.53;4.00;;;13.50;4.60;;;;;;5053044;28;20374;-76
2021/04/15 12:59:37;;;;;;;7.75;3.92;;;13.10;4.30;;;;;;5035044;28;20735;-75
2021/04/15 13:02:03;;;;;;;5.85;3.90;;;12.50;5.40;;;;;;5053168;28;20378;-76
2021/04/15 13:04:34;;;;;;;6.65;4.00;;;12.10;5.70;;;;;;5052439;28;20382;-76
2021/04/15 13:07:00;;;;;;;6.25;4.00;;;11.90;5.30;;;;;;5052076;28;20456;-76
2021/04/15 13:09:38;;;;;;;5.47;3.53;;;11.80;5.10;;;;;;5058857;28;20915;-75
2021/04/15 13:12:34;;;;;;;4.40;3.45;;;11.90;4.70;;;;;;5061884;28;20392;-76
2021/04/15 13:15:04;;;;;;;3.90;3.50;;;11.70;3.50;;;;;;5032041;28;20398;-77
2021/04/15 13:17:36;;;;;;;5.63;3.80;;;11.80;3.80;;;;;;5036613;28;20875;-78
2021/04/15 13:20:14;;;;;;;4.20;3.20;;;12.20;3.90;;;;;;5049394;28;20389;-77
2021/04/15 13:22:45;;;;;;;5.10;3.33;;;12.80;4.50;;;;;;5070038;28;20401;-77
2021/04/15 13:25:32;;;;;;;5.47;3.70;;;12.90;1.50;;;;;;5061424;28;20486;-77
2021/04/15 13:27:58;;;;;;;5.30;3.90;;;12.60;3.90;;;;;;5064396;28;20502;-78
2021/04/15 13:30:41;;;;;;;5.73;3.90;;;12.70;4.10;;;;;;5047503;28;20532;-77
2021/04/15 13:33:14;;;;;;;4.90;4.10;;;13.20;2.40;;;;;;5046045;28;20410;-77
2021/04/15 13:35:50;;;;;;;7.63;4.80;;;14.10;1.70;;;;;;5056504;28;20828;-77
2021/04/15 13:40:58;;;;;;;9.38;5.20;;;15.60;1.00;;;;;;5067444;28;20400;-78
2021/04/15 13:43:35;;;;;;;7.43;4.20;;;15.80;1.40;;;;;;5088880;28;20415;-78
2021/04/15 13:46:23;;;;;;;5.88;4.55;;;15.80;1.00;;;;;;5079558;28;20391;-77
2021/04/15 13:48:50;;;;;;;10.25;4.80;;;16.20;1.00;;;;;;5034061;28;20417;-81
2021/04/15 13:51:22;;;;;;;6.05;3.92;;;15.40;2.10;;;;;;5079888;28;20409;-79
2021/04/15 13:53:51;;;;;;;10.10;4.27;;;14.80;1.90;;;;;;5029181;28;20471;-80